Time,TemperatureF,DewpointF,PressureIn,WindDirection,WindDirectionDegrees,WindSpeedMPH,WindSpeedGustMPH,Humidity,HourlyPrecipIn,Conditions,Clouds,dailyrainin,SoftwareType,DateUTC
2013-04-14 02:00:00,39.0,35.0,29.90,SW,230,15.0,-999.0,87,-99.99,,,-99.99,,2013-04-14 02:00:00,
2013-04-14 02:21:00,39.0,35.0,29.90,SW,230,15.0,-999.0,87,-99.99,,,-99.99,,2013-04-14 02:21:00,
2013-04-14 02:31:00,39.0,35.0,29.90,SW,230,15.0,-999.0,87,-99.99,,,-99.99,,2013-04-14 02:31:00,
2013-04-14 02:41:00,39.0,35.0,29.90,SW,230,15.0,-999.0,87,-99.99,,,-99.99,,2013-04-14 02:41:00,
2013-04-14 02:52:00,39.0,35.0,29.90,SW,230,15.0,-999.0,87,-99.99,,,-99.99,,2013-04-14 02:52:00,
2013-04-14 03:00:00,38.0,35.0,29.91,West,280,11.0,-999.0,89,-99.99,,,-99.99,,2013-04-14 03:00:00,
2013-04-14 03:21:00,38.0,35.0,29.91,West,280,11.0,-999.0,89,-99.99,,,-99.99,,2013-04-14 03:21:00,
2013-04-14 03:32:00,38.0,35.0,29.91,West,280,11.0,-999.0,89,-99.99,,,-99.99,,2013-04-14 03:32:00,
2013-04-14 03:42:00,38.0,35.0,29.91,West,280,11.0,-999.0,89,-99.99,,,-99.99,,2013-04-14 03:42:00,
2013-04-14 03:52:00,38.0,35.0,29.91,West,280,11.0,-999.0,89,-99.99,,,-99.99,,2013-04-14 03:52:00,
2013-04-14 04:00:00,38.0,35.0,29.91,West,270,17.0,-999.0,87,-99.99,,,-99.99,,2013-04-14 04:00:00,
2013-04-14 04:22:00,38.0,35.0,29.91,West,270,17.0,-999.0,87,-99.99,,,-99.99,,2013-04-14 04:22:00,
2013-04-14 04:32:00,38.0,35.0,29.91,West,270,17.0,-999.0,87,-99.99,,,-99.99,,2013-04-14 04:32:00,
2013-04-14 04:42:00,38.0,35.0,29.91,West,270,17.0,-999.0,87,-99.99,,,-99.99,,2013-04-14 04:42:00,
2013-04-14 04:52:00,38.0,35.0,29.91,West,270,17.0,-999.0,87,-99.99,,,-99.99,,2013-04-14 04:52:00,
2013-04-14 05:00:00,38.0,34.0,29.93,West,260,21.0,-999.0,84,-99.99,,,-99.99,,2013-04-14 05:00:00,
2013-04-14 05:22:00,38.0,34.0,29.93,West,260,21.0,-999.0,84,-99.99,,,-99.99,,2013-04-14 05:22:00,
2013-04-14 05:32:00,38.0,34.0,29.93,West,260,21.0,-999.0,84,-99.99,,,-99.99,,2013-04-14 05:32:00,
2013-04-14 05:42:00,38.0,34.0,29.93,West,260,21.0,-999.0,84,-99.99,,,-99.99,,2013-04-14 05:42:00,
2013-04-14 05:52:00,38.0,34.0,29.93,West,260,21.0,-999.0,84,-99.99,,,-99.99,,2013-04-14 05:52:00,
2013-04-14 07:00:00,38.0,32.0,29.94,West,260,23.0,-999.0,77,-99.99,,,-99.99,,2013-04-14 07:00:00,
2013-04-14 07:31:00,38.0,32.0,29.94,West,260,23.0,-999.0,77,-99.99,,,-99.99,,2013-04-14 07:31:00,
2013-04-14 07:41:00,38.0,32.0,29.94,West,260,23.0,-999.0,77,-99.99,,,-99.99,,2013-04-14 07:41:00,
2013-04-14 07:52:00,38.0,32.0,29.94,West,260,23.0,-999.0,77,-99.99,,,-99.99,,2013-04-14 07:52:00,
2013-04-14 08:00:00,38.0,29.0,29.95,West,280,21.0,-999.0,71,-99.99,,,-99.99,,2013-04-14 08:00:00,
2013-04-14 08:21:00,38.0,29.0,29.95,West,280,21.0,-999.0,71,-99.99,,,-99.99,,2013-04-14 08:21:00,
2013-04-14 08:31:00,38.0,29.0,29.95,West,280,21.0,-999.0,71,-99.99,,,-99.99,,2013-04-14 08:31:00,
2013-04-14 08:41:00,38.0,29.0,29.95,West,280,21.0,-999.0,71,-99.99,,,-99.99,,2013-04-14 08:41:00,
2013-04-14 08:52:00,38.0,29.0,29.95,West,280,21.0,-999.0,71,-99.99,,,-99.99,,2013-04-14 08:52:00,
2013-04-14 09:00:00,37.0,28.0,29.98,West,280,21.0,-999.0,69,-99.99,,,-99.99,,2013-04-14 09:00:00,
2013-04-14 09:21:00,37.0,28.0,29.98,West,280,21.0,-999.0,69,-99.99,,,-99.99,,2013-04-14 09:21:00,
2013-04-14 09:32:00,37.0,28.0,29.98,West,280,21.0,-999.0,69,-99.99,,,-99.99,,2013-04-14 09:32:00,
2013-04-14 09:42:00,37.0,28.0,29.98,West,280,21.0,-999.0,69,-99.99,,,-99.99,,2013-04-14 09:42:00,
2013-04-14 09:53:00,37.0,28.0,29.98,West,280,21.0,-999.0,69,-99.99,,,-99.99,,2013-04-14 09:53:00,
2013-04-14 20:00:00,42.0,30.0,30.14,East,100,9.0,-999.0,62,-99.99,,,-99.99,,2013-04-14 20:00:00,
2013-04-14 20:52:00,42.0,30.0,30.14,East,100,9.0,-999.0,62,-99.99,,,-99.99,,2013-04-14 20:52:00,
2013-04-14 21:00:00,44.0,31.0,30.13,East,90,3.0,-999.0,61,-99.99,,,-99.99,,2013-04-14 21:00:00,
2013-04-14 21:52:00,44.0,31.0,30.13,East,90,3.0,-999.0,61,-99.99,,,-99.99,,2013-04-14 21:52:00,
2013-04-14 22:00:00,44.0,33.0,30.14,East,90,3.0,-999.0,67,-99.99,,,-99.99,,2013-04-14 22:00:00,
2013-04-14 22:52:00,44.0,33.0,30.14,East,90,3.0,-999.0,67,-99.99,,,-99.99,,2013-04-14 22:52:00,
2013-04-14 23:00:00,44.0,35.0,30.14,ESE,110,2.0,-999.0,71,-99.99,,,-99.99,,2013-04-14 23:00:00,
2013-04-14 23:52:00,44.0,35.0,30.14,ESE,110,2.0,-999.0,71,-99.99,,,-99.99,,2013-04-14 23:52:00,